Time;durP1;ratioP1;P1;durP2;ratioP2;P2;SDS_P1;SDS_P2;PMS_P1;PMS_P2;Temp;Humidity;BMP_temperature;BMP_pressure;BME280_temperature;BME280_humidity;BME280_pressure;Samples;Min_cycle;Max_cycle;Signal;HPM_P1;HPM_P2
2022/09/30 00:01:00;;;;;;;9.60;7.20;;;;;;;7.68;100.00;100084.75;7387899;19;20461;-57
2022/09/30 00:03:29;;;;;;;10.90;7.00;;;;;;;7.65;100.00;100083.75;7392603;19;20403;-56
2022/09/30 00:05:59;;;;;;;10.97;8.27;;;;;;;7.62;100.00;100086.16;7389953;19;20418;-53
2022/09/30 00:08:39;;;;;;;12.03;8.73;;;;;;;7.63;100.00;100087.94;7392931;19;20394;-55
2022/09/30 00:11:12;;;;;;;10.87;8.20;;;;;;;7.54;100.00;100096.97;7392100;19;20431;-56
2022/09/30 00:13:41;;;;;;;14.03;9.07;;;;;;;7.54;100.00;100098.69;7397579;19;20761;-49
2022/09/30 00:16:12;;;;;;;15.80;9.17;;;;;;;7.51;100.00;100101.09;7396770;19;20422;-56
2022/09/30 00:18:43;;;;;;;12.33;8.50;;;;;;;7.49;100.00;100100.16;7400161;19;20378;-54
2022/09/30 00:21:14;;;;;;;12.87;8.67;;;;;;;7.45;100.00;100098.28;7396996;19;20466;-55
2022/09/30 00:23:46;;;;;;;17.60;9.30;;;;;;;7.45;100.00;100104.28;7399405;19;20388;-56
2022/09/30 00:26:19;;;;;;;12.90;9.47;;;;;;;7.45;100.00;100111.09;7395850;19;20425;-57
2022/09/30 00:28:51;;;;;;;12.93;8.77;;;;;;;7.46;100.00;100120.56;7399100;19;20409;-60
2022/09/30 00:31:22;;;;;;;13.27;10.20;;;;;;;7.46;100.00;100116.31;7394929;19;20446;-54
2022/09/30 00:34:05;;;;;;;16.07;9.90;;;;;;;7.45;100.00;100117.13;7396350;19;20785;-54
2022/09/30 00:36:36;;;;;;;14.73;9.50;;;;;;;7.45;100.00;100121.38;7398715;19;20944;-52
2022/09/30 00:39:10;;;;;;;13.00;9.30;;;;;;;7.46;100.00;100129.16;7395746;19;20392;-57
2022/09/30 00:41:41;;;;;;;14.77;9.83;;;;;;;7.46;100.00;100124.00;7396253;19;20771;-59
2022/09/30 00:44:41;;;;;;;15.13;10.50;;;;;;;7.48;100.00;100124.09;7396780;19;20390;-57
2022/09/30 00:47:37;;;;;;;14.70;9.97;;;;;;;7.49;100.00;100130.97;7399071;19;20377;-55
2022/09/30 00:50:17;;;;;;;16.73;10.83;;;;;;;7.50;100.00;100127.59;7393551;19;20422;-61
2022/09/30 00:52:49;;;;;;;19.47;10.97;;;;;;;7.47;100.00;100130.91;7398432;19;20935;-54
2022/09/30 00:55:28;;;;;;;15.67;10.90;;;;;;;7.46;100.00;100130.81;7396482;19;20421;-55
2022/09/30 00:57:58;;;;;;;16.83;11.27;;;;;;;7.48;100.00;100134.34;7398497;19;20916;-59
2022/09/30 01:00:27;;;;;;;15.97;10.90;;;;;;;7.47;100.00;100135.13;7393923;19;20417;-58
2022/09/30 01:02:57;;;;;;;13.00;10.57;;;;;;;7.47;100.00;100132.56;7398638;19;20420;-53
2022/09/30 01:05:28;;;;;;;16.60;11.30;;;;;;;7.49;100.00;100128.41;7395151;19;20421;-58
2022/09/30 01:07:59;;;;;;;14.03;10.80;;;;;;;7.43;100.00;100122.19;7402528;19;20737;-59
2022/09/30 01:10:31;;;;;;;18.40;12.20;;;;;;;7.45;100.00;100123.94;7392837;19;20440;-57
2022/09/30 01:13:01;;;;;;;17.87;11.87;;;;;;;7.43;100.00;100127.31;7397417;19;20383;-57
2022/09/30 01:15:43;;;;;;;19.77;12.50;;;;;;;7.36;100.00;100130.44;7395472;19;20403;-57
2022/09/30 01:18:18;;;;;;;17.40;11.43;;;;;;;7.36;100.00;100138.13;7398750;19;20929;-55
2022/09/30 01:21:17;;;;;;;16.80;11.40;;;;;;;7.34;100.00;100136.28;7391859;19;20418;-56
2022/09/30 01:24:01;;;;;;;19.10;12.00;;;;;;;7.32;100.00;100138.78;7397889;19;20383;-55
2022/09/30 01:26:47;;;;;;;16.87;12.53;;;;;;;7.29;100.00;100142.09;7393756;19;20996;-61
2022/09/30 01:29:32;;;;;;;21.93;12.90;;;;;;;7.30;100.00;100140.41;7394453;19;20433;-55
2022/09/30 01:32:10;;;;;;;18.83;12.60;;;;;;;7.25;100.00;100144.44;7397569;19;20405;-53
2022/09/30 01:34:48;;;;;;;19.00;12.23;;;;;;;7.21;100.00;100137.41;7393360;19;20406;-56
2022/09/30 01:37:25;;;;;;;16.93;11.80;;;;;;;7.16;100.00;100138.09;7397449;19;20388;-59
2022/09/30 01:40:05;;;;;;;18.80;12.80;;;;;;;7.16;100.00;100142.34;7393187;19;20434;-56
2022/09/30 01:42:41;;;;;;;19.93;13.27;;;;;;;7.19;100.00;100141.63;7397246;19;20416;-59
2022/09/30 01:45:14;;;;;;;19.30;14.10;;;;;;;7.15;100.00;100146.63;7396423;19;20468;-56
2022/09/30 01:47:50;;;;;;;17.90;13.20;;;;;;;7.13;100.00;100152.47;7397243;19;20491;-58
2022/09/30 01:50:22;;;;;;;20.67;13.97;;;;;;;7.10;100.00;100142.97;7392356;19;20432;-61
2022/09/30 01:52:58;;;;;;;18.03;12.97;;;;;;;7.07;100.00;100147.06;7396973;19;20385;-54
2022/09/30 01:55:31;;;;;;;20.77;14.10;;;;;;;7.08;100.00;100146.25;7392444;19;20449;-57
2022/09/30 01:58:03;;;;;;;20.17;13.90;;;;;;;7.07;100.00;100152.19;7396542;19;20919;-57
2022/09/30 02:00:33;;;;;;;19.33;13.97;;;;;;;7.06;100.00;100156.44;7391457;19;20416;-59
2022/09/30 02:03:09;;;;;;;23.53;15.00;;;;;;;7.07;100.00;100155.63;7398085;19;20392;-58
2022/09/30 02:05:42;;;;;;;21.50;14.53;;;;;;;7.05;100.00;100149.56;7395482;19;20436;-60
2022/09/30 02:08:16;;;;;;;21.17;14.70;;;;;;;7.05;100.00;100159.81;7397904;19;20431;-56
2022/09/30 02:10:48;;;;;;;21.50;14.73;;;;;;;7.05;100.00;100162.38;7395295;19;20434;-53
2022/09/30 02:13:21;;;;;;;21.53;14.17;;;;;;;7.02;100.00;100154.53;7399432;19;20399;-59
2022/09/30 02:15:54;;;;;;;20.17;14.97;;;;;;;7.02;100.00;100163.13;7395866;19;20437;-55
2022/09/30 02:18:30;;;;;;;23.00;15.93;;;;;;;7.02;100.00;100167.34;7399872;19;20399;-60
2022/09/30 02:21:03;;;;;;;25.17;16.37;;;;;;;7.01;100.00;100169.06;7393959;19;20456;-55
2022/09/30 02:23:35;;;;;;;25.67;17.93;;;;;;;7.00;100.00;100171.53;7399207;19;20490;-62
2022/09/30 02:26:07;;;;;;;25.60;15.63;;;;;;;6.97;100.00;100177.41;7395892;19;20438;-57
2022/09/30 02:28:39;;;;;;;24.43;15.70;;;;;;;6.98;100.00;100178.28;7395682;19;20411;-56
2022/09/30 02:31:10;;;;;;;25.70;16.17;;;;;;;7.01;100.00;100188.69;7391725;19;20466;-58
2022/09/30 02:33:45;;;;;;;24.40;16.13;;;;;;;7.01;100.00;100176.75;7395869;19;21090;-56
2022/09/30 02:36:20;;;;;;;22.73;15.30;;;;;;;7.05;100.00;100182.91;7391947;19;20748;-58
2022/09/30 02:38:57;;;;;;;26.83;17.80;;;;;;;7.06;100.00;100187.22;7398472;19;20398;-55
2022/09/30 02:41:27;;;;;;;27.10;16.60;;;;;;;7.11;100.00;100187.44;7392034;19;20425;-54
2022/09/30 02:43:57;;;;;;;22.97;15.70;;;;;;;7.13;100.00;100183.28;7392422;19;20391;-58
2022/09/30 02:46:29;;;;;;;30.20;20.23;;;;;;;7.26;100.00;100183.03;7395807;19;20941;-58
2022/09/30 02:49:05;;;;;;;31.13;17.47;;;;;;;7.19;100.00;100182.66;7392268;19;20470;-57
2022/09/30 02:51:42;;;;;;;28.50;17.30;;;;;;;7.34;100.00;100178.22;7392799;19;20509;-55
2022/09/30 02:54:19;;;;;;;22.97;15.77;;;;;;;7.26;100.00;100182.13;7391313;19;20379;-58
2022/09/30 02:56:53;;;;;;;31.70;17.63;;;;;;;7.18;100.00;100174.06;7394617;19;20385;-57
2022/09/30 02:59:23;;;;;;;26.33;16.00;;;;;;;7.14;100.00;100178.19;7390526;19;20423;-51
2022/09/30 03:01:53;;;;;;;25.60;15.67;;;;;;;7.16;100.00;100178.25;7394357;19;20408;-51
2022/09/30 03:04:30;;;;;;;23.57;16.27;;;;;;;7.18;100.00;100186.03;7392332;19;20410;-57
2022/09/30 03:06:59;;;;;;;24.57;15.83;;;;;;;7.15;100.00;100190.22;7394262;19;20390;-61
2022/09/30 03:09:29;;;;;;;28.13;16.60;;;;;;;7.19;100.00;100198.06;7390862;19;20422;-57
2022/09/30 03:12:07;;;;;;;24.80;16.60;;;;;;;7.19;100.00;100198.94;7393865;19;20381;-58
2022/09/30 03:14:48;;;;;;;23.27;16.43;;;;;;;7.21;100.00;100201.56;7394114;19;20409;-57
2022/09/30 03:17:32;;;;;;;22.83;17.20;;;;;;;7.23;100.00;100199.97;7393143;19;21225;-56
2022/09/30 03:20:16;;;;;;;23.73;16.47;;;;;;;7.24;100.00;100202.59;7391562;19;21007;-56
2022/09/30 03:23:21;;;;;;;24.10;16.33;;;;;;;7.25;100.00;100208.59;7393875;19;20409;-56
2022/09/30 03:25:58;;;;;;;28.73;18.20;;;;;;;7.27;100.00;100207.88;7390732;19;20409;-58
2022/09/30 03:28:30;;;;;;;25.70;16.77;;;;;;;7.28;100.00;100211.34;7394185;19;20391;-56
2022/09/30 03:31:06;;;;;;;28.63;17.27;;;;;;;7.30;100.00;100204.56;7388788;19;20434;-55
2022/09/30 03:33:43;;;;;;;27.40;17.00;;;;;;;7.29;100.00;100200.25;7393476;19;20411;-57
2022/09/30 03:36:17;;;;;;;26.67;18.10;;;;;;;7.31;100.00;100198.63;7389799;19;20417;-63
2022/09/30 03:38:51;;;;;;;26.60;17.50;;;;;;;7.32;100.00;100191.81;7397071;19;20394;-54
2022/09/30 03:41:26;;;;;;;26.33;17.60;;;;;;;7.33;100.00;100197.00;7392877;19;20450;-52
2022/09/30 03:44:00;;;;;;;26.87;18.00;;;;;;;7.34;100.00;100195.31;7392908;19;20387;-60
2022/09/30 03:46:34;;;;;;;25.33;16.70;;;;;;;7.32;100.00;100197.81;7391840;19;20397;-56
2022/09/30 03:49:06;;;;;;;28.70;18.57;;;;;;;7.29;100.00;100195.13;7390691;19;20413;-59
2022/09/30 03:51:40;;;;;;;26.63;17.47;;;;;;;7.33;100.00;100196.13;7391173;19;20418;-58
2022/09/30 03:54:11;;;;;;;26.77;17.60;;;;;;;7.32;100.00;100197.81;7389806;19;20378;-58
2022/09/30 03:56:42;;;;;;;27.70;17.80;;;;;;;7.32;100.00;100199.53;7392337;19;20384;-54
2022/09/30 03:59:14;;;;;;;27.50;17.60;;;;;;;7.32;100.00;100210.66;7389187;19;20390;-56
2022/09/30 04:01:43;;;;;;;25.27;16.40;;;;;;;7.29;100.00;100207.94;7390887;19;20438;-56
2022/09/30 04:04:12;;;;;;;26.47;17.80;;;;;;;7.31;100.00;100214.03;7389233;19;20730;-52
2022/09/30 04:06:45;;;;;;;34.83;20.20;;;;;;;7.34;100.00;100214.16;7392885;19;20386;-55
2022/09/30 04:09:14;;;;;;;30.10;19.83;;;;;;;7.33;100.00;100217.53;7392771;19;25419;-55
2022/09/30 04:11:44;;;;;;;30.63;18.07;;;;;;;7.33;100.00;100214.09;7392316;19;20754;-59
2022/09/30 04:14:13;;;;;;;30.33;18.37;;;;;;;7.34;100.00;100216.72;7389036;19;20392;-56
2022/09/30 04:16:43;;;;;;;26.90;16.70;;;;;;;7.34;100.00;100224.41;7392728;19;20397;-55
2022/09/30 04:19:12;;;;;;;27.23;17.30;;;;;;;7.34;100.00;100226.97;7387872;19;20409;-59
2022/09/30 04:21:44;;;;;;;26.60;17.70;;;;;;;7.35;100.00;100231.34;7389604;19;20945;-58
2022/09/30 04:24:14;;;;;;;29.87;19.23;;;;;;;7.39;100.00;100233.22;7390384;19;20388;-55
2022/09/30 04:26:43;;;;;;;24.73;17.53;;;;;;;7.37;100.00;100239.97;7392120;19;20411;-58
2022/09/30 04:29:12;;;;;;;30.13;17.67;;;;;;;7.34;100.00;100239.81;7388546;19;20713;-59
2022/09/30 04:31:42;;;;;;;30.30;17.70;;;;;;;7.38;100.00;100240.88;7389846;19;20415;-54
2022/09/30 04:34:11;;;;;;;32.03;17.40;;;;;;;7.36;100.00;100252.72;7388418;19;20389;-59
2022/09/30 04:36:42;;;;;;;30.60;18.60;;;;;;;7.38;100.00;100257.13;7389394;19;20975;-55
2022/09/30 04:39:14;;;;;;;25.93;17.10;;;;;;;7.40;100.00;100258.06;7391422;19;20415;-54
2022/09/30 04:41:43;;;;;;;25.60;17.80;;;;;;;7.42;100.00;100256.47;7389545;19;20415;-57
2022/09/30 04:44:12;;;;;;;29.13;18.93;;;;;;;7.43;100.00;100249.63;7388659;19;20380;-57
2022/09/30 04:46:42;;;;;;;29.20;19.60;;;;;;;7.46;100.00;100249.78;7391469;19;20386;-56
2022/09/30 04:49:12;;;;;;;35.33;19.53;;;;;;;7.47;100.00;100250.66;7387550;19;20419;-61
2022/09/30 04:51:44;;;;;;;30.27;19.57;;;;;;;7.46;100.00;100257.50;7388850;19;20796;-58
2022/09/30 04:54:17;;;;;;;27.53;18.03;;;;;;;7.47;100.00;100260.91;7388082;19;20398;-60
2022/09/30 04:56:46;;;;;;;32.13;19.97;;;;;;;7.47;100.00;100260.91;7390513;19;20422;-57
2022/09/30 04:59:16;;;;;;;27.87;18.30;;;;;;;7.49;100.00;100265.31;7395053;19;20394;-57
2022/09/30 05:01:45;;;;;;;28.60;19.43;;;;;;;7.49;100.00;100273.03;7398293;19;20395;-57
2022/09/30 05:04:15;;;;;;;24.20;17.17;;;;;;;7.47;100.00;100272.09;7394272;19;21068;-56
2022/09/30 05:06:44;;;;;;;28.67;18.33;;;;;;;7.47;100.00;100268.63;7396889;19;20400;-58
2022/09/30 05:09:16;;;;;;;27.60;17.80;;;;;;;7.47;100.00;100276.31;7393976;19;20947;-60
2022/09/30 05:11:46;;;;;;;28.57;19.20;;;;;;;7.47;100.00;100276.31;7396380;19;20379;-54
2022/09/30 05:14:15;;;;;;;27.70;18.47;;;;;;;7.43;100.00;100276.19;7393484;19;21233;-54
2022/09/30 05:16:45;;;;;;;28.43;17.53;;;;;;;7.46;100.00;100284.84;7392238;19;20406;-56
2022/09/30 05:19:14;;;;;;;29.47;20.00;;;;;;;7.45;100.00;100277.94;7389866;19;20394;-56
2022/09/30 05:21:43;;;;;;;29.53;18.47;;;;;;;7.43;100.00;100281.31;7393020;19;20445;-55
2022/09/30 05:24:13;;;;;;;31.20;20.00;;;;;;;7.45;100.00;100281.41;7392384;19;20412;-56
2022/09/30 05:26:45;;;;;;;29.30;20.13;;;;;;;7.41;100.00;100280.38;7395301;19;20416;-58
2022/09/30 05:29:15;;;;;;;27.40;18.57;;;;;;;7.38;100.00;100287.06;7391821;19;20404;-56
2022/09/30 05:31:44;;;;;;;31.00;18.70;;;;;;;7.35;100.00;100295.50;7395150;19;20378;-54
2022/09/30 05:34:15;;;;;;;30.63;20.60;;;;;;;7.33;100.00;100293.66;7392589;19;20409;-51
2022/09/30 05:36:45;;;;;;;31.23;20.80;;;;;;;7.30;100.00;100302.09;7393274;19;20391;-56
2022/09/30 05:39:14;;;;;;;30.07;20.53;;;;;;;7.27;100.00;100307.06;7392675;19;20408;-55
2022/09/30 05:41:46;;;;;;;31.60;20.80;;;;;;;7.25;100.00;100301.88;7395770;19;20405;-55
2022/09/30 05:44:16;;;;;;;33.37;21.73;;;;;;;7.23;100.00;100305.19;7391836;19;20444;-59
2022/09/30 05:46:46;;;;;;;28.17;19.40;;;;;;;7.21;100.00;100304.19;7399140;19;20394;-56
2022/09/30 05:49:15;;;;;;;32.10;21.67;;;;;;;7.19;100.00;100306.72;7393195;19;20756;-57
2022/09/30 05:51:45;;;;;;;33.77;21.17;;;;;;;7.18;100.00;100304.94;7395332;19;20423;-57
2022/09/30 05:54:15;;;;;;;34.80;21.20;;;;;;;7.18;100.00;100307.50;7393162;19;20429;-54
2022/09/30 05:56:47;;;;;;;31.70;21.67;;;;;;;7.18;100.00;100302.38;7394088;19;20417;-58
2022/09/30 05:59:16;;;;;;;32.17;21.23;;;;;;;7.13;100.00;100306.41;7391972;19;20433;-50
2022/09/30 06:01:45;;;;;;;32.30;20.50;;;;;;;7.10;100.00;100302.03;7395233;19;20401;-56
2022/09/30 06:04:15;;;;;;;38.80;23.40;;;;;;;7.16;100.00;100310.00;7391501;19;20434;-57
2022/09/30 06:06:47;;;;;;;31.90;21.13;;;;;;;7.12;100.00;100314.91;7395067;19;20757;-60
2022/09/30 06:09:18;;;;;;;33.00;21.93;;;;;;;7.11;100.00;100314.03;7391847;19;20424;-53
2022/09/30 06:11:50;;;;;;;32.17;20.50;;;;;;;7.12;100.00;100315.78;7396113;19;20469;-57
2022/09/30 06:14:21;;;;;;;36.13;22.53;;;;;;;7.14;100.00;100318.44;7387561;19;20438;-51
2022/09/30 06:16:51;;;;;;;32.93;22.37;;;;;;;7.14;100.00;100318.44;7398044;19;20397;-56
2022/09/30 06:19:20;;;;;;;37.70;24.40;;;;;;;7.17;100.00;100323.69;7394811;19;20431;-52
2022/09/30 06:21:50;;;;;;;34.03;22.30;;;;;;;7.19;100.00;100326.34;7395300;19;20757;-54
2022/09/30 06:24:20;;;;;;;34.50;22.40;;;;;;;7.21;100.00;100329.84;7395475;19;20439;-53
2022/09/30 06:26:52;;;;;;;36.67;23.37;;;;;;;7.24;100.00;100330.88;7394754;19;20385;-56
2022/09/30 06:29:21;;;;;;;34.73;20.70;;;;;;;7.28;100.00;100326.81;7390784;19;21199;-55
2022/09/30 06:31:51;;;;;;;34.23;21.93;;;;;;;7.33;100.00;100332.16;7397947;19;20401;-49
2022/09/30 06:34:20;;;;;;;32.17;21.27;;;;;;;7.38;100.00;100320.44;7391841;19;20424;-58
2022/09/30 06:36:50;;;;;;;38.63;23.00;;;;;;;7.45;100.00;100313.88;7394143;19;20401;-56
2022/09/30 06:39:19;;;;;;;39.30;22.10;;;;;;;7.50;100.00;100307.28;7391400;19;20410;-55
2022/09/30 06:41:51;;;;;;;34.23;23.23;;;;;;;7.56;100.00;100316.16;7395062;19;20386;-54
2022/09/30 06:44:21;;;;;;;36.17;22.77;;;;;;;7.62;100.00;100317.25;7391607;19;20409;-54
2022/09/30 06:46:50;;;;;;;35.13;22.07;;;;;;;7.67;100.00;100320.91;7395066;19;20400;-59
2022/09/30 06:49:22;;;;;;;32.17;21.87;;;;;;;7.72;100.00;100323.69;7393830;19;20433;-59
2022/09/30 06:51:52;;;;;;;32.97;22.00;;;;;;;7.79;100.00;100325.75;7394643;19;20396;-58
2022/09/30 06:54:22;;;;;;;33.93;21.40;;;;;;;7.80;100.00;100327.50;7392340;19;20436;-60
2022/09/30 06:56:56;;;;;;;30.63;21.10;;;;;;;7.88;100.00;100331.28;7393853;19;20394;-57
2022/09/30 06:59:26;;;;;;;32.77;22.00;;;;;;;7.92;100.00;100333.22;7391317;19;21112;-53
2022/09/30 07:01:55;;;;;;;29.00;19.03;;;;;;;7.96;100.00;100326.53;7394406;19;20390;-57
2022/09/30 07:04:24;;;;;;;30.10;21.03;;;;;;;8.00;100.00;100332.69;7392559;19;20452;-57
2022/09/30 07:06:54;;;;;;;32.57;21.10;;;;;;;8.03;100.00;100335.38;7394256;19;20380;-57
2022/09/30 07:09:24;;;;;;;31.97;19.73;;;;;;;8.13;100.00;100341.78;7390156;19;20443;-58
2022/09/30 07:11:56;;;;;;;28.63;20.07;;;;;;;8.14;100.00;100339.31;7394149;19;20387;-52
2022/09/30 07:14:26;;;;;;;27.70;19.60;;;;;;;8.20;100.00;100349.84;7390841;19;20411;-54
2022/09/30 07:16:56;;;;;;;32.50;20.53;;;;;;;8.26;100.00;100353.53;7393254;19;20380;-57
2022/09/30 07:19:25;;;;;;;27.67;18.40;;;;;;;8.31;100.00;100357.19;7388230;19;20411;-57
2022/09/30 07:21:54;;;;;;;31.23;20.33;;;;;;;8.40;100.00;100356.72;7393819;19;20422;-57
2022/09/30 07:24:24;;;;;;;34.90;20.10;;;;;;;8.43;100.00;100349.13;7390596;19;20446;-60
2022/09/30 07:26:56;;;;;;;29.63;18.50;;;;;;;8.45;100.00;100356.09;7393856;19;20403;-56
2022/09/30 07:29:26;;;;;;;24.67;17.23;;;;;;;8.54;100.00;100357.34;7390869;19;20446;-55
2022/09/30 07:31:55;;;;;;;35.77;22.00;;;;;;;8.54;100.00;100360.78;7393619;19;20917;-57
2022/09/30 07:34:25;;;;;;;26.53;17.60;;;;;;;8.56;100.00;100354.03;7391216;19;20419;-52
2022/09/30 07:36:54;;;;;;;43.30;23.10;;;;;;;8.68;100.00;100356.25;7392827;19;20379;-56
2022/09/30 07:39:24;;;;;;;33.60;18.17;;;;;;;8.69;100.00;100368.31;7390523;19;20415;-54
2022/09/30 07:41:56;;;;;;;26.37;16.60;;;;;;;8.77;100.00;100371.22;7395016;19;20411;-54
2022/09/30 07:44:25;;;;;;;23.30;15.10;;;;;;;8.80;100.00;100378.16;7390003;19;20956;-55
2022/09/30 07:46:55;;;;;;;58.73;25.73;;;;;;;8.89;100.00;100383.72;7397146;19;20392;-56
2022/09/30 07:49:25;;;;;;;92.37;42.63;;;;;;;8.99;100.00;100387.53;7389762;19;20418;-58
2022/09/30 07:51:57;;;;;;;23.97;16.57;;;;;;;9.03;100.00;100392.88;7393976;19;20737;-57
2022/09/30 07:54:28;;;;;;;20.97;14.60;;;;;;;9.13;100.00;100388.13;7390162;19;20414;-59
2022/09/30 07:57:01;;;;;;;21.23;14.30;;;;;;;9.14;100.00;100395.03;7392402;19;20403;-50
2022/09/30 07:59:40;;;;;;;19.63;14.07;;;;;;;9.23;100.00;100399.69;7389573;19;20407;-60
2022/09/30 08:02:14;;;;;;;22.90;14.80;;;;;;;9.31;100.00;100406.91;7392730;19;20423;-55
2022/09/30 08:04:44;;;;;;;22.80;14.07;;;;;;;9.41;100.00;100405.59;7388691;19;20425;-57
2022/09/30 08:07:14;;;;;;;16.60;11.70;;;;;;;9.43;100.00;100419.41;7391542;19;20384;-53
2022/09/30 08:09:44;;;;;;;14.23;10.80;;;;;;;9.55;100.00;100421.59;7388112;19;20442;-57
2022/09/30 08:12:16;;;;;;;16.33;11.43;;;;;;;9.61;100.00;100435.53;7392242;19;20431;-53
2022/09/30 08:14:46;;;;;;;16.33;11.13;;;;;;;9.72;100.00;100426.56;7389559;19;20415;-55
2022/09/30 08:17:15;;;;;;;19.40;10.80;;;;;;;9.65;100.00;100432.28;7391334;19;20403;-57
2022/09/30 08:19:45;;;;;;;13.47;10.07;;;;;;;9.80;100.00;100430.31;7388692;19;20442;-61
2022/09/30 08:22:15;;;;;;;17.67;10.53;;;;;;;9.78;100.00;100433.63;7390230;19;20376;-56
2022/09/30 08:24:44;;;;;;;16.03;9.77;;;;;;;9.90;100.00;100435.84;7393183;19;20443;-52
2022/09/30 08:27:16;;;;;;;15.67;10.47;;;;;;;10.03;100.00;100438.06;7391954;19;20379;-53
2022/09/30 08:29:46;;;;;;;11.77;8.53;;;;;;;10.06;100.00;100443.31;7388669;19;20418;-60
2022/09/30 08:32:24;;;;;;;13.00;9.30;;;;;;;10.09;100.00;100448.63;7398007;19;20388;-57
2022/09/30 08:34:53;;;;;;;12.30;8.50;;;;;;;10.21;100.00;100447.34;7397019;19;20891;-55
2022/09/30 08:37:23;;;;;;;12.40;7.13;;;;;;;10.33;100.00;100458.13;7399527;19;20391;-56
2022/09/30 08:39:52;;;;;;;9.90;7.20;;;;;;;10.40;100.00;100469.53;7394369;19;20434;-51
2022/09/30 08:42:35;;;;;;;10.53;6.87;;;;;;;10.39;100.00;100472.94;7398702;19;20426;-53
2022/09/30 08:45:16;;;;;;;9.60;7.03;;;;;;;10.56;100.00;100476.19;7394504;19;20445;-59
2022/09/30 08:47:49;;;;;;;10.63;6.37;;;;;;;10.70;100.00;100484.44;7399129;19;20380;-55
2022/09/30 08:50:24;;;;;;;9.63;6.10;;;;;;;10.73;100.00;100475.94;7393409;19;20427;-60
2022/09/30 08:52:56;;;;;;;9.67;6.47;;;;;;;10.74;100.00;100485.44;7398758;19;20754;-56
2022/09/30 08:55:28;;;;;;;9.60;5.73;;;;;;;10.65;100.00;100486.84;7395532;19;20411;-59
2022/09/30 08:58:00;;;;;;;9.17;6.20;;;;;;;10.64;100.00;100491.94;7398593;19;20421;-51
2022/09/30 09:00:30;;;;;;;10.40;6.60;;;;;;;10.70;100.00;100489.59;7391636;19;20435;-53
2022/09/30 09:03:01;;;;;;;10.90;6.47;;;;;;;10.80;100.00;100490.81;7402933;19;20399;-58
2022/09/30 09:05:39;;;;;;;9.63;6.50;;;;;;;10.90;100.00;100487.75;7393905;19;20414;-59
2022/09/30 09:08:13;;;;;;;9.00;5.80;;;;;;;11.02;100.00;100491.59;7398459;19;20416;-58
2022/09/30 09:10:47;;;;;;;8.50;5.83;;;;;;;11.06;100.00;100496.03;7391115;19;20414;-57
2022/09/30 09:13:35;;;;;;;24.43;6.30;;;;;;;11.13;100.00;100497.16;7402211;19;20388;-53
2022/09/30 09:16:10;;;;;;;8.20;5.67;;;;;;;11.12;100.00;100497.97;7394481;19;20411;-52
2022/09/30 09:18:44;;;;;;;7.53;4.70;;;;;;;11.20;100.00;100502.59;7395589;19;21333;-58
2022/09/30 09:21:22;;;;;;;7.77;5.10;;;;;;;11.32;100.00;100511.56;7394738;19;20415;-53
2022/09/30 09:23:54;;;;;;;11.50;7.10;;;;;;;11.37;100.00;100502.28;7401819;19;20926;-57
2022/09/30 09:26:25;;;;;;;9.00;5.03;;;;;;;11.48;100.00;100498.34;7397532;19;20944;-59
2022/09/30 09:29:07;;;;;;;8.50;5.60;;;;;;;11.63;100.00;100501.41;7393111;19;20467;-52
2022/09/30 09:31:37;;;;;;;12.00;6.00;;;;;;;11.69;100.00;100496.44;7398240;19;20446;-58
2022/09/30 09:34:12;;;;;;;13.37;7.07;;;;;;;11.66;100.00;100502.41;7393742;19;20430;-56
2022/09/30 09:36:50;;;;;;;8.23;4.20;;;;;;;11.53;100.00;100503.69;7395838;19;20448;-59
2022/09/30 09:39:36;;;;;;;11.63;5.50;;;;;;;11.43;100.00;100505.06;7390715;19;20440;-53
2022/09/30 09:42:12;;;;;;;8.13;5.20;;;;;;;11.46;100.00;100505.19;7398059;19;20392;-56
2022/09/30 09:44:50;;;;;;;6.63;4.03;;;;;;;11.42;100.00;100500.72;7397210;19;20465;-56
2022/09/30 09:47:20;;;;;;;7.90;4.73;;;;;;;11.48;100.00;100497.47;7396784;19;20422;-53
2022/09/30 09:49:52;;;;;;;6.93;4.80;;;;;;;11.61;100.00;100494.50;7391741;19;20412;-54
2022/09/30 09:52:46;;;;;;;13.60;7.67;;;;;;;11.65;100.00;100492.88;7396759;19;20392;-52
2022/09/30 09:55:16;;;;;;;11.60;6.40;;;;;;;11.70;100.00;100488.72;7396009;19;20417;-56
2022/09/30 09:57:46;;;;;;;12.03;4.90;;;;;;;11.79;100.00;100487.28;7396238;19;20388;-58
2022/09/30 10:03:17;;;;;;;5.47;3.47;;;;;;;11.77;100.00;100499.25;7382712;19;20479;-59
2022/09/30 10:05:48;;;;;;;10.30;5.93;;;;;;;11.78;100.00;100503.63;7396427;19;20397;-57
2022/09/30 10:08:19;;;;;;;8.43;3.80;;;;;;;11.85;100.00;100508.16;7393179;19;20448;-58
2022/09/30 10:10:51;;;;;;;7.90;4.00;;;;;;;11.89;100.00;100515.19;7394402;19;20939;-56
2022/09/30 10:13:23;;;;;;;8.17;3.67;;;;;;;11.99;100.00;100519.81;7391104;19;20407;-52
2022/09/30 10:15:56;;;;;;;4.80;3.23;;;;;;;11.96;100.00;100527.50;7396195;19;20396;-54
2022/09/30 10:18:28;;;;;;;6.90;3.77;;;;;;;11.93;100.00;100529.06;7391565;19;20440;-55
2022/09/30 10:21:00;;;;;;;7.70;3.50;;;;;;;11.97;100.00;100533.53;7393375;19;20443;-58
2022/09/30 10:23:32;;;;;;;5.40;3.50;;;;;;;12.00;100.00;100533.66;7369955;19;20439;-59
2022/09/30 10:26:05;;;;;;;7.73;3.47;;;;;;;11.86;100.00;100533.19;7395841;19;20384;-52
2022/09/30 10:28:36;;;;;;;5.43;3.33;;;;;;;11.97;100.00;100538.69;7390431;19;20447;-52
2022/09/30 10:31:13;;;;;;;6.60;3.40;;;;;;;12.05;100.00;100539.00;7393488;19;20413;-61
2022/09/30 10:33:45;;;;;;;9.73;4.23;;;;;;;12.05;100.00;100531.22;7393026;19;20448;-57
2022/09/30 10:36:18;;;;;;;7.87;3.83;;;;;;;12.03;100.00;100528.56;7395408;19;20715;-60
2022/09/30 10:38:54;;;;;;;8.03;4.10;;;;;;;12.10;100.00;100529.69;7391488;19;20415;-59
2022/09/30 10:41:26;;;;;;;6.33;4.07;;;;;;;12.15;100.00;100522.91;7393976;19;20417;-58
2022/09/30 10:43:57;;;;;;;11.13;5.10;;;;;;;12.15;100.00;100528.09;7390628;19;20452;-58
2022/09/30 10:46:31;;;;;;;6.23;4.37;;;;;;;12.27;100.00;100520.72;7394674;19;20389;-56
2022/09/30 10:49:01;;;;;;;7.20;5.03;;;;;;;12.33;100.00;100516.56;7389875;19;20435;-54
2022/09/30 10:51:35;;;;;;;9.47;3.93;;;;;;;12.49;100.00;100515.31;7392973;19;20433;-60
2022/09/30 10:54:05;;;;;;;6.87;4.53;;;;;;;12.53;100.00;100518.06;7390704;19;20431;-57
2022/09/30 10:56:44;;;;;;;8.97;4.50;;;;;;;12.65;100.00;100512.38;7394689;19;20384;-55
2022/09/30 10:59:32;;;;;;;5.43;3.60;;;;;;;12.58;100.00;100517.31;7386045;19;20454;-59
2022/09/30 11:02:15;;;;;;;6.53;3.70;;;;;;;12.66;100.00;100516.72;7394184;19;20388;-58
2022/09/30 11:04:47;;;;;;;5.70;3.53;;;;;;;12.52;100.00;100537.00;7393399;19;20438;-57
2022/09/30 11:07:25;;;;;;;7.27;3.70;;;;;;;12.59;100.00;100539.75;7394156;19;20383;-53
2022/09/30 11:09:59;;;;;;;8.60;4.10;;;;;;;12.59;100.00;100539.75;7389387;19;20426;-57
2022/09/30 11:12:34;;;;;;;5.13;3.50;;;;;;;12.59;100.00;100545.84;7394046;19;20387;-57
2022/09/30 11:15:09;;;;;;;5.40;3.67;;;;;;;12.82;100.00;100550.81;7388288;19;20932;-54
2022/09/30 11:17:48;;;;;;;6.40;3.40;;;;;;;12.92;100.00;100558.00;7394641;19;20776;-52
2022/09/30 11:20:22;;;;;;;6.87;3.60;;;;;;;12.92;100.00;100552.81;7390660;19;20434;-57
2022/09/30 11:22:56;;;;;;;6.40;3.60;;;;;;;12.94;100.00;100547.69;7387479;19;20384;-59
2022/09/30 11:25:30;;;;;;;5.57;3.20;;;;;;;13.18;100.00;100538.88;7396621;19;20390;-55
2022/09/30 11:28:14;;;;;;;5.20;2.90;;;;;;;13.38;100.00;100547.16;7389721;19;20418;-60
2022/09/30 11:30:48;;;;;;;12.20;2.60;;;;;;;13.48;100.00;100561.28;7391905;19;20421;-55
2022/09/30 11:33:31;;;;;;;4.03;2.67;;;;;;;13.49;100.00;100579.47;7389491;19;21042;-58
2022/09/30 11:36:07;;;;;;;4.73;2.23;;;;;;;13.53;100.00;100600.31;7392334;19;20455;-54
2022/09/30 11:39:00;;;;;;;5.40;2.30;;;;;;;13.40;100.00;100620.66;7390736;19;20439;-54
2022/09/30 11:41:32;;;;;;;16.57;8.70;;;;;;;13.68;100.00;100620.56;7391154;19;20417;-56